createdAt,value
2022-08-22T00:00:53.342Z,99.01
2022-08-22T00:02:55.204Z,96.06
2022-08-22T00:03:29.686Z,99.46
2022-08-22T00:06:22.907Z,99.66
2022-08-22T00:09:03.602Z,100.00
2022-08-22T00:12:00.108Z,100.00
2022-08-22T00:14:35.030Z,100.00
2022-08-22T00:17:30.127Z,100.00
2022-08-22T00:20:28.038Z,100.00
2022-08-22T00:23:18.124Z,100.00
2022-08-22T00:25:54.079Z,100.00
2022-08-22T00:28:39.076Z,100.00
2022-08-22T00:31:10.089Z,100.00
2022-08-22T00:34:00.670Z,100.00
2022-08-22T00:36:52.911Z,100.00
2022-08-22T00:39:47.341Z,100.00
2022-08-22T00:42:40.128Z,100.00
2022-08-22T00:45:10.892Z,100.00
2022-08-22T00:47:45.641Z,100.00
2022-08-22T00:51:00.561Z,100.00
2022-08-22T00:53:43.486Z,100.00
2022-08-22T00:56:34.071Z,100.00
2022-08-22T00:59:23.776Z,100.00
2022-08-22T01:02:11.086Z,100.00
2022-08-22T01:05:08.664Z,100.00
2022-08-22T01:08:42.252Z,100.00
2022-08-22T01:11:45.689Z,100.00
2022-08-22T01:14:34.886Z,99.21
2022-08-22T01:17:19.714Z,98.84
2022-08-22T01:19:55.922Z,98.12
2022-08-22T01:22:41.466Z,97.45
2022-08-22T01:25:50.970Z,97.19
2022-08-22T01:28:45.550Z,96.85
2022-08-22T01:31:48.381Z,97.05
2022-08-22T01:34:46.227Z,97.05
2022-08-22T01:37:43.850Z,96.66
2022-08-22T01:40:53.797Z,96.41
2022-08-22T01:44:01.753Z,95.67
2022-08-22T01:46:43.418Z,96.33
2022-08-22T01:49:35.375Z,96.70
2022-08-22T01:52:26.022Z,96.13
2022-08-22T01:55:09.613Z,95.88
2022-08-22T01:57:58.917Z,95.43
2022-08-22T02:00:35.385Z,95.08
2022-08-22T02:03:13.588Z,95.40
2022-08-22T02:05:55.162Z,95.10
2022-08-22T02:08:52.418Z,95.40
2022-08-22T02:11:46.796Z,96.26
2022-08-22T02:14:36.574Z,96.44
2022-08-22T02:17:39.362Z,96.36
2022-08-22T02:20:35.982Z,96.66
2022-08-22T02:23:21.888Z,96.16
2022-08-22T02:26:09.668Z,95.60
2022-08-22T02:28:57.378Z,94.67
2022-08-22T02:31:40.349Z,94.86
2022-08-22T02:34:44.438Z,95.05
2022-08-22T02:37:18.325Z,95.33
2022-08-22T02:40:12.558Z,95.09
2022-08-22T02:42:50.000Z,95.60
2022-08-22T02:45:26.647Z,95.40
2022-08-22T02:48:12.772Z,95.47
2022-08-22T02:51:21.393Z,95.54
2022-08-22T02:54:08.911Z,95.82
2022-08-22T02:56:49.814Z,95.22
2022-08-22T02:59:58.694Z,94.86
2022-08-22T03:02:37.769Z,94.05
2022-08-22T03:05:26.341Z,93.84
2022-08-22T03:08:23.983Z,93.33
2022-08-22T03:11:15.933Z,93.63
2022-08-22T03:14:02.764Z,94.23
2022-08-22T03:16:50.220Z,94.50
2022-08-22T03:19:56.803Z,94.59
2022-08-22T03:22:29.932Z,94.29
2022-08-22T03:25:08.112Z,94.20
2022-08-22T03:27:58.037Z,94.33
2022-08-22T03:30:41.392Z,94.28
2022-08-22T03:33:22.525Z,94.59
2022-08-22T03:36:09.381Z,94.42
2022-08-22T03:38:44.621Z,94.22
2022-08-22T03:41:32.698Z,93.43
2022-08-22T03:44:38.769Z,92.58
2022-08-22T03:47:31.028Z,92.50
2022-08-22T03:50:40.543Z,93.29
2022-08-22T03:53:40.002Z,94.53
2022-08-22T03:56:16.524Z,95.28
2022-08-22T03:59:10.067Z,95.76
2022-08-22T04:01:56.665Z,96.14
2022-08-22T04:04:53.583Z,96.34
2022-08-22T04:08:00.959Z,96.17
2022-08-22T04:10:47.089Z,95.02
2022-08-22T04:13:20.508Z,94.00
2022-08-22T04:16:08.939Z,93.69
2022-08-22T04:18:51.773Z,92.81
2022-08-22T04:22:07.778Z,92.39
2022-08-22T04:25:07.982Z,92.58
2022-08-22T04:27:57.866Z,91.77
2022-08-22T04:30:50.518Z,90.93
2022-08-22T04:33:47.474Z,91.03
2022-08-22T04:36:21.328Z,91.20
2022-08-22T04:39:00.650Z,91.55
2022-08-22T04:41:31.464Z,91.46
2022-08-22T04:44:16.016Z,90.42
2022-08-22T04:47:13.652Z,90.71
2022-08-22T04:50:07.525Z,90.92
2022-08-22T04:52:53.397Z,90.31
2022-08-22T04:55:32.892Z,89.74
2022-08-22T04:58:06.675Z,88.41
2022-08-22T05:01:08.964Z,87.60
2022-08-22T05:03:44.883Z,87.90
2022-08-22T05:06:15.904Z,88.34
2022-08-22T05:08:48.389Z,88.25
2022-08-22T05:11:24.682Z,88.11
2022-08-22T05:14:04.160Z,87.60
2022-08-22T05:16:41.112Z,86.01
2022-08-22T05:19:29.816Z,86.14
2022-08-22T05:22:00.913Z,85.90
2022-08-22T05:24:43.513Z,85.00
2022-08-22T05:27:21.132Z,84.93
2022-08-22T05:29:53.739Z,84.52
2022-08-22T05:32:48.547Z,84.32
2022-08-22T05:35:18.992Z,84.15
2022-08-22T05:37:55.050Z,84.33
2022-08-22T05:40:33.450Z,83.52
2022-08-22T05:43:01.469Z,82.74
2022-08-22T05:45:30.282Z,82.02
2022-08-22T05:48:09.731Z,81.75
2022-08-22T05:50:50.426Z,81.51
2022-08-22T05:53:37.770Z,80.31
2022-08-22T05:56:18.484Z,79.44
2022-08-22T05:58:54.874Z,79.16
2022-08-22T06:01:59.390Z,79.09
2022-08-22T06:04:40.503Z,79.17
2022-08-22T06:07:14.661Z,78.81
2022-08-22T06:09:48.349Z,77.33
2022-08-22T06:12:21.932Z,76.49
2022-08-22T06:15:23.100Z,75.82
2022-08-22T06:17:57.696Z,75.23
2022-08-22T06:20:55.122Z,74.44
2022-08-22T06:23:36.348Z,74.82
2022-08-22T06:26:06.566Z,73.92
2022-08-22T06:28:56.580Z,73.38
2022-08-22T06:31:55.224Z,72.46
2022-08-22T06:34:36.247Z,71.83
2022-08-22T06:37:08.228Z,71.74
2022-08-22T06:39:43.548Z,71.24
2022-08-22T06:42:28.240Z,69.77
2022-08-22T06:44:57.410Z,68.12
2022-08-22T06:47:44.282Z,67.47
2022-08-22T06:50:30.964Z,66.65
2022-08-22T06:53:07.416Z,66.38
2022-08-22T06:55:39.233Z,65.29
2022-08-22T06:58:18.432Z,64.85
2022-08-22T07:00:58.844Z,63.18
2022-08-22T07:03:46.551Z,61.78
2022-08-22T07:06:18.395Z,60.20
2022-08-22T07:08:52.561Z,59.10
2022-08-22T07:11:28.806Z,57.55
2022-08-22T07:14:08.378Z,55.48
2022-08-22T07:16:44.769Z,55.11
2022-08-22T07:19:32.934Z,54.15
2022-08-22T07:22:12.613Z,53.04
2022-08-22T07:24:47.262Z,52.91
2022-08-22T07:27:42.696Z,52.84
2022-08-22T07:30:27.644Z,52.83
2022-08-22T07:33:24.908Z,53.16
2022-08-22T07:35:53.707Z,52.69
2022-08-22T07:38:42.895Z,52.84
2022-08-22T07:41:11.018Z,50.84
2022-08-22T07:43:45.262Z,47.51
2022-08-22T07:46:22.115Z,44.09
2022-08-22T07:49:14.952Z,40.71
2022-08-22T07:51:46.505Z,39.46
2022-08-22T07:54:29.946Z,38.93
2022-08-22T07:57:09.649Z,37.09
2022-08-22T07:59:43.320Z,35.44
2022-08-22T08:02:14.114Z,33.66
2022-08-22T08:04:44.057Z,31.59
2022-08-22T08:07:14.967Z,29.88
2022-08-22T08:09:54.075Z,28.72
2022-08-22T08:12:30.774Z,27.90
2022-08-22T08:15:00.476Z,28.17
2022-08-22T08:17:32.268Z,28.16
2022-08-22T08:20:07.533Z,28.65
2022-08-22T08:22:37.573Z,29.13
2022-08-22T08:25:07.653Z,28.33
2022-08-22T08:27:57.448Z,28.23
2022-08-22T08:30:43.953Z,27.71
2022-08-22T08:33:25.594Z,26.27
2022-08-22T08:36:16.793Z,26.36
2022-08-22T08:39:18.339Z,25.34
2022-08-22T08:42:14.844Z,24.53
2022-08-22T08:44:51.613Z,24.96
2022-08-22T08:47:28.254Z,26.87
2022-08-22T08:50:02.082Z,29.45
2022-08-22T08:52:58.484Z,31.35
2022-08-22T08:55:34.439Z,29.71
2022-08-22T08:58:32.971Z,29.54
2022-08-22T09:01:03.440Z,30.96
2022-08-22T09:03:51.429Z,32.45
2022-08-22T09:06:52.743Z,32.75
2022-08-22T09:09:46.075Z,30.85
2022-08-22T09:13:11.191Z,31.80
2022-08-22T09:16:04.429Z,31.27
2022-08-22T09:18:51.642Z,32.04
2022-08-22T09:21:46.686Z,32.28
2022-08-22T09:24:42.573Z,30.80
2022-08-22T09:27:21.760Z,27.92
2022-08-22T09:30:01.282Z,25.87
2022-08-22T09:32:33.781Z,26.38
2022-08-22T09:35:20.685Z,26.89
2022-08-22T09:38:22.321Z,25.73
2022-08-22T09:41:23.505Z,25.22
2022-08-22T09:44:12.064Z,26.96
2022-08-22T09:46:45.942Z,28.70
2022-08-22T09:49:23.515Z,30.38
2022-08-22T09:52:15.174Z,32.44
2022-08-22T09:55:35.875Z,34.35
2022-08-22T09:58:27.885Z,34.32
2022-08-22T10:01:01.688Z,34.50
2022-08-22T10:04:25.763Z,36.10
2022-08-22T10:07:12.320Z,37.17
2022-08-22T10:10:34.817Z,37.79
2022-08-22T10:13:24.594Z,37.83
2022-08-22T10:15:59.550Z,38.28
2022-08-22T10:19:00.552Z,39.00
2022-08-22T10:21:37.379Z,39.31
2022-08-22T10:24:43.806Z,39.82
2022-08-22T10:27:34.396Z,40.93
2022-08-22T10:30:13.208Z,41.69
2022-08-22T10:32:59.332Z,40.78
2022-08-22T10:36:12.150Z,40.71
2022-08-22T10:38:50.969Z,40.05
2022-08-22T10:41:48.823Z,39.89
2022-08-22T10:44:22.135Z,39.07
2022-08-22T10:46:58.755Z,39.57
2022-08-22T10:49:34.396Z,39.04
2022-08-22T10:52:27.510Z,39.11
2022-08-22T10:55:02.077Z,38.33
2022-08-22T10:58:02.648Z,38.00
2022-08-22T11:00:54.262Z,38.52
2022-08-22T11:03:48.705Z,38.08
2022-08-22T11:06:23.636Z,38.90
2022-08-22T11:09:35.820Z,39.26
2022-08-22T11:12:34.513Z,38.25
2022-08-22T11:15:40.187Z,38.60
2022-08-22T11:18:25.263Z,38.67
2022-08-22T11:21:03.307Z,39.36
2022-08-22T11:24:08.715Z,39.19
2022-08-22T11:27:40.171Z,40.19
2022-08-22T11:30:46.661Z,40.18
2022-08-22T11:33:37.429Z,41.21
2022-08-22T11:36:50.400Z,41.02
2022-08-22T11:39:42.792Z,41.41
2022-08-22T11:42:21.789Z,41.56
2022-08-22T11:45:02.149Z,41.23
2022-08-22T11:47:40.743Z,41.45
2022-08-22T11:50:23.541Z,41.03
2022-08-22T11:53:18.697Z,40.55
2022-08-22T11:56:17.908Z,40.82
2022-08-22T11:58:57.626Z,40.44
2022-08-22T12:01:35.198Z,40.23
2022-08-22T12:04:16.535Z,40.72
2022-08-22T12:07:14.934Z,40.17
2022-08-22T12:10:04.379Z,39.32
2022-08-22T12:13:01.374Z,38.84
2022-08-22T12:15:47.421Z,39.08
2022-08-22T12:18:31.055Z,39.10
2022-08-22T12:21:20.871Z,39.29
2022-08-22T12:24:11.076Z,39.84
2022-08-22T12:26:55.283Z,39.49
2022-08-22T12:29:44.643Z,39.51
2022-08-22T12:32:43.923Z,39.43
2022-08-22T12:35:30.034Z,39.73
2022-08-22T12:38:28.981Z,39.29
2022-08-22T12:41:35.520Z,39.61
2022-08-22T12:44:16.434Z,39.67
2022-08-22T12:47:04.290Z,39.84
2022-08-22T12:49:38.606Z,39.96
2022-08-22T12:52:31.367Z,41.03
2022-08-22T12:55:25.487Z,40.75
2022-08-22T12:58:07.488Z,41.38
2022-08-22T13:00:48.557Z,40.97
2022-08-22T13:03:34.159Z,40.71
2022-08-22T13:06:33.489Z,40.66
2022-08-22T13:09:03.789Z,41.06
2022-08-22T13:11:39.721Z,41.77
2022-08-22T13:14:18.242Z,41.56
2022-08-22T13:16:53.835Z,42.15
2022-08-22T13:19:36.982Z,41.74
2022-08-22T13:22:09.799Z,41.23
2022-08-22T13:25:04.804Z,41.68
2022-08-22T13:27:50.685Z,41.98
2022-08-22T13:30:24.554Z,42.41
2022-08-22T13:32:56.341Z,41.12
2022-08-22T13:35:36.533Z,41.27
2022-08-22T13:38:13.872Z,40.96
2022-08-22T13:40:47.749Z,41.24
2022-08-22T13:43:22.616Z,41.12
2022-08-22T13:45:54.569Z,40.91
2022-08-22T13:48:28.377Z,41.07
2022-08-22T13:51:01.731Z,41.85
2022-08-22T13:53:29.711Z,41.67
2022-08-22T13:56:05.616Z,42.82
2022-08-22T13:58:42.043Z,42.17
2022-08-22T14:01:19.999Z,42.51
2022-08-22T14:03:52.906Z,41.19
2022-08-22T14:06:26.727Z,40.95
2022-08-22T14:09:14.692Z,40.92
2022-08-22T14:12:00.491Z,41.54
2022-08-22T14:14:33.755Z,42.31
2022-08-22T14:17:01.902Z,42.77
2022-08-22T14:19:29.622Z,42.65
2022-08-22T14:22:18.174Z,42.41
2022-08-22T14:24:58.932Z,43.43
2022-08-22T14:27:39.884Z,43.02
2022-08-22T14:30:22.025Z,42.78
2022-08-22T14:32:57.267Z,43.41
2022-08-22T14:35:37.853Z,43.63
2022-08-22T14:38:17.147Z,44.34
2022-08-22T14:40:46.968Z,45.35
2022-08-22T14:43:40.605Z,44.61
2022-08-22T14:46:12.607Z,44.67
2022-08-22T14:48:44.131Z,44.43
2022-08-22T14:51:25.239Z,44.62
2022-08-22T14:53:52.974Z,43.83
2022-08-22T14:56:27.769Z,44.44
2022-08-22T14:58:59.952Z,45.06
2022-08-22T15:01:32.764Z,45.07
2022-08-22T15:04:05.789Z,45.51
2022-08-22T15:06:36.094Z,46.12
2022-08-22T15:09:26.690Z,45.63
2022-08-22T15:11:54.581Z,45.77
2022-08-22T15:14:25.959Z,45.91
2022-08-22T15:16:53.568Z,45.41
2022-08-22T15:19:23.859Z,46.01
2022-08-22T15:21:52.079Z,46.16
2022-08-22T15:24:20.698Z,45.55
2022-08-22T15:26:51.369Z,45.84
2022-08-22T15:29:31.085Z,46.13
2022-08-22T15:32:00.858Z,45.96
2022-08-22T15:34:32.030Z,46.81
2022-08-22T15:37:18.584Z,46.26
2022-08-22T15:40:13.981Z,46.33
2022-08-22T15:42:46.641Z,47.25
2022-08-22T15:45:33.934Z,47.00
2022-08-22T15:48:04.472Z,47.08
2022-08-22T15:50:34.673Z,47.57
2022-08-22T15:53:06.720Z,47.70
2022-08-22T15:55:35.437Z,47.97
2022-08-22T15:58:07.718Z,48.47
2022-08-22T16:00:43.686Z,48.47
2022-08-22T16:03:13.234Z,48.12
2022-08-22T16:05:43.574Z,48.60
2022-08-22T16:08:18.315Z,49.23
2022-08-22T16:10:48.967Z,50.21
2022-08-22T16:13:29.560Z,49.86
2022-08-22T16:16:00.666Z,50.22
2022-08-22T16:18:34.112Z,50.52
2022-08-22T16:21:03.416Z,51.24
2022-08-22T16:23:46.276Z,51.06
2022-08-22T16:26:16.610Z,51.07
2022-08-22T16:29:02.547Z,51.42
2022-08-22T16:31:33.400Z,51.98
2022-08-22T16:34:16.639Z,53.21
2022-08-22T16:37:10.439Z,52.70
2022-08-22T16:39:40.992Z,52.81
2022-08-22T16:42:21.140Z,52.95
2022-08-22T16:45:05.164Z,52.72
2022-08-22T16:47:33.535Z,53.41
2022-08-22T16:50:30.327Z,53.62
2022-08-22T16:53:01.535Z,53.97
2022-08-22T16:55:28.793Z,54.09
2022-08-22T16:58:06.974Z,54.58
2022-08-22T17:00:52.024Z,54.63
2022-08-22T17:03:31.739Z,55.11
2022-08-22T17:06:18.378Z,55.28
2022-08-22T17:08:55.250Z,56.01
2022-08-22T17:11:40.613Z,55.54
2022-08-22T17:14:08.270Z,55.46
2022-08-22T17:16:44.247Z,56.17
2022-08-22T17:19:11.830Z,56.38
2022-08-22T17:21:51.928Z,56.75
2022-08-22T17:24:42.514Z,57.09
2022-08-22T17:27:27.939Z,57.93
2022-08-22T17:30:10.107Z,58.37
2022-08-22T17:32:44.350Z,59.13
2022-08-22T17:35:38.272Z,59.78
2022-08-22T17:38:25.540Z,60.45
2022-08-22T17:41:10.692Z,60.30
2022-08-22T17:43:48.942Z,60.67
2022-08-22T17:46:25.176Z,61.13
2022-08-22T17:49:02.049Z,61.47
2022-08-22T17:51:29.607Z,62.54
2022-08-22T17:54:12.063Z,63.46
2022-08-22T17:56:45.642Z,63.70
2022-08-22T17:59:21.131Z,64.62
2022-08-22T18:01:50.786Z,65.26
2022-08-22T18:04:27.315Z,65.57
2022-08-22T18:07:15.293Z,66.13
2022-08-22T18:09:56.617Z,66.99
2022-08-22T18:12:38.255Z,67.71
2022-08-22T18:15:13.136Z,68.06
2022-08-22T18:17:47.189Z,68.74
2022-08-22T18:20:22.987Z,68.98
2022-08-22T18:22:54.361Z,69.85
2022-08-22T18:25:22.453Z,70.31
2022-08-22T18:27:56.274Z,70.49
2022-08-22T18:30:33.524Z,70.76
2022-08-22T18:33:09.485Z,71.02
2022-08-22T18:35:40.298Z,71.38
2022-08-22T18:38:20.478Z,72.38
2022-08-22T18:41:06.801Z,73.19
2022-08-22T18:43:52.577Z,73.54
2022-08-22T18:46:26.788Z,73.99
2022-08-22T18:49:14.736Z,74.73
2022-08-22T18:51:43.175Z,74.89
2022-08-22T18:54:11.510Z,75.30
2022-08-22T18:56:54.725Z,75.79
2022-08-22T18:59:22.562Z,75.57
2022-08-22T19:02:02.717Z,75.90
2022-08-22T19:04:49.117Z,76.34
2022-08-22T19:07:52.289Z,76.94
2022-08-22T19:10:29.768Z,76.70
2022-08-22T19:12:57.546Z,76.06
2022-08-22T19:15:43.972Z,75.25
2022-08-22T19:18:17.315Z,74.74
2022-08-22T19:21:25.364Z,73.71
2022-08-22T19:23:53.424Z,73.05
2022-08-22T19:26:23.311Z,73.04
2022-08-22T19:28:52.815Z,73.34
2022-08-22T19:31:22.409Z,73.86
2022-08-22T19:34:10.074Z,74.47
2022-08-22T19:36:37.840Z,74.38
2022-08-22T19:39:09.007Z,73.98
2022-08-22T19:41:43.796Z,73.56
2022-08-22T19:44:31.420Z,73.56
2022-08-22T19:47:17.239Z,74.56
2022-08-22T19:49:51.608Z,75.50
2022-08-22T19:52:30.675Z,76.80
2022-08-22T19:55:16.652Z,77.64
2022-08-22T19:57:57.204Z,77.71
2022-08-22T20:00:43.359Z,78.65
2022-08-22T20:03:31.148Z,79.15
2022-08-22T20:06:22.084Z,79.81
2022-08-22T20:08:56.615Z,80.71
2022-08-22T20:11:42.846Z,81.55
2022-08-22T20:14:18.510Z,82.10
2022-08-22T20:17:02.095Z,82.88
2022-08-22T20:19:38.716Z,83.25
2022-08-22T20:22:08.728Z,82.87
2022-08-22T20:24:40.160Z,82.86
2022-08-22T20:27:20.076Z,82.90
2022-08-22T20:29:59.312Z,83.23
2022-08-22T20:32:27.508Z,83.66
2022-08-22T20:35:00.476Z,83.10
2022-08-22T20:38:05.797Z,82.85
2022-08-22T20:40:57.102Z,83.31
2022-08-22T20:43:28.335Z,83.79
2022-08-22T20:45:59.516Z,84.40
2022-08-22T20:48:35.962Z,84.60
2022-08-22T20:51:07.968Z,85.29
2022-08-22T20:53:36.172Z,85.86
2022-08-22T20:56:07.116Z,85.75
2022-08-22T20:58:37.745Z,85.56
2022-08-22T21:01:06.770Z,85.63
2022-08-22T21:03:42.964Z,85.96
2022-08-22T21:06:14.002Z,86.48
2022-08-22T21:08:41.758Z,86.65
2022-08-22T21:11:28.295Z,86.79
2022-08-22T21:13:56.050Z,87.14
2022-08-22T21:16:33.069Z,87.61
2022-08-22T21:19:03.540Z,88.51
2022-08-22T21:21:35.098Z,88.36
2022-08-22T21:24:05.553Z,87.60
2022-08-22T21:26:33.291Z,87.27
2022-08-22T21:29:12.489Z,87.66
2022-08-22T21:31:51.028Z,88.13
2022-08-22T21:34:20.970Z,88.59
2022-08-22T21:36:50.770Z,89.01
2022-08-22T21:39:23.979Z,89.60
2022-08-22T21:42:11.968Z,90.56
2022-08-22T21:44:40.623Z,90.79
2022-08-22T21:47:31.665Z,91.72
2022-08-22T21:49:59.471Z,92.22
2022-08-22T21:52:31.134Z,92.45
2022-08-22T21:55:27.754Z,92.42
2022-08-22T21:58:04.521Z,91.06
2022-08-22T22:00:51.614Z,89.70
2022-08-22T22:03:21.696Z,90.21
2022-08-22T22:05:50.537Z,90.74
2022-08-22T22:08:18.223Z,91.58
2022-08-22T22:10:47.008Z,91.62
2022-08-22T22:13:14.993Z,91.91
2022-08-22T22:15:44.367Z,92.37
2022-08-22T22:18:17.127Z,92.39
2022-08-22T22:20:45.331Z,92.98
2022-08-22T22:23:13.442Z,92.98
2022-08-22T22:25:42.411Z,93.79
2022-08-22T22:28:12.816Z,94.06
2022-08-22T22:30:41.449Z,94.27
2022-08-22T22:33:09.157Z,94.11
2022-08-22T22:35:40.452Z,93.85
2022-08-22T22:38:08.274Z,93.56
2022-08-22T22:40:35.876Z,93.66
2022-08-22T22:43:03.773Z,93.80
2022-08-22T22:45:31.703Z,93.99
2022-08-22T22:47:59.558Z,93.87
2022-08-22T22:50:27.443Z,94.57
2022-08-22T22:52:55.205Z,95.12
2022-08-22T22:55:24.527Z,95.35
2022-08-22T22:57:58.618Z,95.53
2022-08-22T23:00:32.327Z,96.16
2022-08-22T23:03:01.078Z,96.25
2022-08-22T23:05:29.939Z,96.66
2022-08-22T23:07:58.122Z,97.17
2022-08-22T23:10:27.098Z,97.59
2022-08-22T23:12:55.123Z,97.75
2022-08-22T23:15:22.805Z,98.59
2022-08-22T23:17:50.787Z,98.71
2022-08-22T23:20:18.863Z,98.29
2022-08-22T23:22:46.866Z,98.39
2022-08-22T23:25:14.397Z,98.68
2022-08-22T23:27:42.367Z,99.14
2022-08-22T23:30:10.869Z,99.40
2022-08-22T23:32:39.106Z,99.56
2022-08-22T23:35:07.009Z,99.98
2022-08-22T23:37:35.033Z,100.00
2022-08-22T23:40:03.710Z,100.00
2022-08-22T23:42:31.443Z,100.00
2022-08-22T23:44:58.986Z,100.00
2022-08-22T23:47:26.516Z,100.00
2022-08-22T23:49:54.303Z,100.00
2022-08-22T23:52:21.950Z,100.00
2022-08-22T23:54:54.518Z,100.00
2022-08-22T23:57:27.706Z,100.00
2022-08-22T23:59:57.327Z,100.00
